createdAt,value
2019-04-04T00:00:21.144Z,23.90
2019-04-04T00:01:21.542Z,28.60
2019-04-04T00:02:21.847Z,17.50
2019-04-04T00:03:22.227Z,19.20
2019-04-04T00:04:22.722Z,22.50
2019-04-04T00:05:25.586Z,20.10
2019-04-04T00:06:24.984Z,23.50
2019-04-04T00:07:23.639Z,22.80
2019-04-04T00:08:24.016Z,24.10
2019-04-04T00:09:24.369Z,22.60
2019-04-04T00:10:27.615Z,19.90
2019-04-04T00:11:25.104Z,24.20
2019-04-04T00:12:25.427Z,21.40
2019-04-04T00:13:25.801Z,20.40
2019-04-04T00:14:26.186Z,26.90
2019-04-04T00:15:26.479Z,25.20
2019-04-04T00:16:26.860Z,21.00
2019-04-04T00:17:27.179Z,19.10
2019-04-04T00:18:27.966Z,21.40
2019-04-04T00:19:29.823Z,21.20
2019-04-04T00:20:31.502Z,21.50
2019-04-04T00:21:28.656Z,21.90
2019-04-04T00:22:29.070Z,20.90
2019-04-04T00:23:29.293Z,22.10
2019-04-04T00:24:29.677Z,21.90
2019-04-04T00:25:30.046Z,20.50
2019-04-04T00:26:30.407Z,19.70
2019-04-04T00:27:30.760Z,22.20
2019-04-04T00:28:31.101Z,20.80
2019-04-04T00:29:31.455Z,19.00
2019-04-04T00:30:31.855Z,21.10
2019-04-04T00:31:32.200Z,28.80
2019-04-04T00:32:32.517Z,22.90
2019-04-04T00:33:32.878Z,22.60
2019-04-04T00:34:33.240Z,21.70
2019-04-04T00:35:33.555Z,23.90
2019-04-04T00:36:34.600Z,24.60
2019-04-04T00:37:35.866Z,24.40
2019-04-04T00:38:35.981Z,27.10
2019-04-04T00:39:34.978Z,21.80
2019-04-04T00:40:35.325Z,21.90
2019-04-04T00:41:35.715Z,22.00
2019-04-04T00:42:36.029Z,20.40
2019-04-04T00:43:36.378Z,24.40
2019-04-04T00:44:36.753Z,27.70
2019-04-04T00:45:37.088Z,24.10
2019-04-04T00:46:37.496Z,21.00
2019-04-04T00:47:37.890Z,23.10
2019-04-04T00:48:38.147Z,22.40
2019-04-04T00:49:38.516Z,23.40
2019-04-04T00:50:38.849Z,24.70
2019-04-04T00:51:39.647Z,23.50
2019-04-04T00:52:40.922Z,26.30
2019-04-04T00:53:42.724Z,21.60
2019-04-04T00:54:40.275Z,24.60
2019-04-04T00:55:40.731Z,25.50
2019-04-04T00:56:40.971Z,24.10
2019-04-04T00:57:41.340Z,22.40
2019-04-04T00:58:41.668Z,26.30
2019-04-04T00:59:42.049Z,24.10
2019-04-04T01:00:42.382Z,21.50
2019-04-04T01:01:42.755Z,25.80
2019-04-04T01:02:43.123Z,21.80
2019-04-04T01:03:43.518Z,23.90
2019-04-04T01:04:43.793Z,23.20
2019-04-04T01:05:44.147Z,23.80
2019-04-04T01:06:44.503Z,24.10
2019-04-04T01:07:45.077Z,25.80
2019-04-04T01:08:45.187Z,25.20
2019-04-04T01:09:45.901Z,25.80
2019-04-04T01:10:45.896Z,25.50
2019-04-04T01:11:46.312Z,24.30
2019-04-04T01:12:46.597Z,26.70
2019-04-04T01:13:46.949Z,22.90
2019-04-04T01:14:47.288Z,23.60
2019-04-04T01:15:47.626Z,22.60
2019-04-04T01:16:48.011Z,26.40
2019-04-04T01:17:48.359Z,24.40
2019-04-04T01:18:48.725Z,25.90
2019-04-04T01:19:49.764Z,21.80
2019-04-04T01:20:50.397Z,23.60
2019-04-04T01:21:52.989Z,31.40
2019-04-04T01:22:50.124Z,21.80
2019-04-04T01:23:50.467Z,21.30
2019-04-04T01:24:50.838Z,25.40
2019-04-04T01:25:51.172Z,24.00
2019-04-04T01:26:51.510Z,23.10
2019-04-04T01:27:51.922Z,26.20
2019-04-04T01:28:52.358Z,21.80
2019-04-04T01:29:52.632Z,20.90
2019-04-04T01:30:52.952Z,22.60
2019-04-04T01:31:53.306Z,27.20
2019-04-04T01:32:53.720Z,23.80
2019-04-04T01:33:54.039Z,26.20
2019-04-04T01:34:54.413Z,25.20
2019-04-04T01:35:54.743Z,22.40
2019-04-04T01:36:56.321Z,23.00
2019-04-04T01:37:56.114Z,21.20
2019-04-04T01:38:55.799Z,22.00
2019-04-04T01:39:56.163Z,24.80
2019-04-04T01:40:56.502Z,23.70
2019-04-04T01:41:56.833Z,23.80
2019-04-04T01:42:57.236Z,23.60
2019-04-04T01:44:04.956Z,24.40
2019-04-04T01:44:59.004Z,28.60
2019-04-04T01:45:58.255Z,25.60
2019-04-04T01:46:58.621Z,20.60
2019-04-04T01:47:58.986Z,24.70
2019-04-04T01:48:59.325Z,25.70
2019-04-04T01:49:59.694Z,24.80
2019-04-04T01:51:00.030Z,25.90
2019-04-04T01:52:00.384Z,24.00
2019-04-04T01:53:00.782Z,24.90
2019-04-04T01:54:01.648Z,23.60
2019-04-04T01:55:03.283Z,23.50
2019-04-04T01:56:01.776Z,23.80
2019-04-04T01:57:02.136Z,24.50
2019-04-04T01:58:02.502Z,24.80
2019-04-04T01:59:02.857Z,25.10
2019-04-04T02:00:03.197Z,27.40
2019-04-04T02:01:03.582Z,27.80
2019-04-04T02:02:03.956Z,26.90
2019-04-04T02:03:04.264Z,23.80
2019-04-04T02:04:04.597Z,25.70
2019-04-04T02:05:04.950Z,24.20
2019-04-04T02:06:05.327Z,24.50
2019-04-04T02:07:05.655Z,25.40
2019-04-04T02:08:06.024Z,29.00
2019-04-04T02:09:06.373Z,25.80
2019-04-04T02:10:06.838Z,23.20
2019-04-04T02:11:07.059Z,25.50
2019-04-04T02:12:07.827Z,22.30
2019-04-04T02:13:09.687Z,24.30
2019-04-04T02:14:08.146Z,25.40
2019-04-04T02:15:08.484Z,26.40
2019-04-04T02:16:08.800Z,25.60
2019-04-04T02:17:09.172Z,26.30
2019-04-04T02:18:09.625Z,26.10
2019-04-04T02:19:09.875Z,25.90
2019-04-04T02:20:10.232Z,26.10
2019-04-04T02:21:10.552Z,22.90
2019-04-04T02:22:10.921Z,24.40
2019-04-04T02:23:11.297Z,22.90
2019-04-04T02:24:11.638Z,28.90
2019-04-04T02:25:11.996Z,22.50
2019-04-04T02:26:12.341Z,26.60
2019-04-04T02:27:12.650Z,23.40
2019-04-04T02:28:13.040Z,24.80
2019-04-04T02:29:13.398Z,28.70
2019-04-04T02:30:16.040Z,25.70
2019-04-04T02:31:14.081Z,22.40
2019-04-04T02:32:14.431Z,26.70
2019-04-04T02:33:14.799Z,26.80
2019-04-04T02:34:15.212Z,25.50
2019-04-04T02:35:15.509Z,25.10
2019-04-04T02:36:16.723Z,22.70
2019-04-04T02:37:16.221Z,26.40
2019-04-04T02:38:16.578Z,31.00
2019-04-04T02:39:16.924Z,25.20
2019-04-04T02:40:17.315Z,28.10
2019-04-04T02:41:17.676Z,25.30
2019-04-04T02:42:21.116Z,27.40
2019-04-04T02:43:18.447Z,22.60
2019-04-04T02:44:18.718Z,25.80
2019-04-04T02:45:19.060Z,27.40
2019-04-04T02:46:19.428Z,27.80
2019-04-04T02:47:19.761Z,33.90
2019-04-04T02:48:23.419Z,25.70
2019-04-04T02:49:20.464Z,26.30
2019-04-04T02:50:20.797Z,26.50
2019-04-04T02:51:21.314Z,28.80
2019-04-04T02:52:21.553Z,26.20
2019-04-04T02:53:26.635Z,27.80
2019-04-04T02:54:24.618Z,24.50
2019-04-04T02:55:22.618Z,28.10
2019-04-04T02:56:22.990Z,27.20
2019-04-04T02:57:23.322Z,28.10
2019-04-04T02:58:23.687Z,24.00
2019-04-04T02:59:24.047Z,26.40
2019-04-04T03:00:26.728Z,27.00
2019-04-04T03:01:24.729Z,24.70
2019-04-04T03:02:25.110Z,23.60
2019-04-04T03:03:25.437Z,26.50
2019-04-04T03:04:25.794Z,25.30
2019-04-04T03:05:26.138Z,27.20
2019-04-04T03:06:26.476Z,26.90
2019-04-04T03:07:29.905Z,25.40
2019-04-04T03:08:27.192Z,27.70
2019-04-04T03:09:27.534Z,27.20
2019-04-04T03:10:27.873Z,26.40
2019-04-04T03:11:28.244Z,28.30
2019-04-04T03:12:28.570Z,24.40
2019-04-04T03:13:31.619Z,23.20
2019-04-04T03:14:29.308Z,26.50
2019-04-04T03:15:29.670Z,24.90
2019-04-04T03:16:30.057Z,28.10
2019-04-04T03:17:31.910Z,30.70
2019-04-04T03:18:30.711Z,28.30
2019-04-04T03:19:31.055Z,22.40
2019-04-04T03:20:31.404Z,27.90
2019-04-04T03:21:31.776Z,25.70
2019-04-04T03:22:32.103Z,27.70
2019-04-04T03:23:33.828Z,25.40
2019-04-04T03:24:32.929Z,28.60
2019-04-04T03:25:33.187Z,24.70
2019-04-04T03:26:33.529Z,25.10
2019-04-04T03:27:33.878Z,28.00
2019-04-04T03:28:34.224Z,27.60
2019-04-04T03:29:37.297Z,23.60
2019-04-04T03:30:34.954Z,24.50
2019-04-04T03:31:37.504Z,29.30
2019-04-04T03:32:35.734Z,25.10
2019-04-04T03:33:35.968Z,25.00
2019-04-04T03:34:36.343Z,28.90
2019-04-04T03:35:36.693Z,28.50
2019-04-04T03:36:37.066Z,28.80
2019-04-04T03:37:40.365Z,26.00
2019-04-04T03:38:37.745Z,27.20
2019-04-04T03:39:38.123Z,25.70
2019-04-04T03:40:41.595Z,32.00
2019-04-04T03:41:38.819Z,31.40
2019-04-04T03:42:43.573Z,30.20
2019-04-04T03:43:39.514Z,27.70
2019-04-04T03:44:39.891Z,30.40
2019-04-04T03:45:40.223Z,27.40
2019-04-04T03:46:40.613Z,28.30
2019-04-04T03:47:43.672Z,27.20
2019-04-04T03:48:41.323Z,25.90
2019-04-04T03:49:41.677Z,27.60
2019-04-04T03:50:42.008Z,28.30
2019-04-04T03:51:42.383Z,23.40
2019-04-04T03:52:44.326Z,32.80
2019-04-04T03:53:43.087Z,26.00
2019-04-04T03:54:43.567Z,28.00
2019-04-04T03:55:43.811Z,28.00
2019-04-04T03:56:44.170Z,31.00
2019-04-04T03:57:44.585Z,25.90
2019-04-04T03:58:44.844Z,29.30
2019-04-04T03:59:45.216Z,28.50
2019-04-04T04:00:45.563Z,23.30
2019-04-04T04:01:46.799Z,25.20
2019-04-04T04:02:49.777Z,26.60
2019-04-04T04:03:46.607Z,25.20
2019-04-04T04:04:46.989Z,27.50
2019-04-04T04:05:47.443Z,25.40
2019-04-04T04:06:47.662Z,27.90
2019-04-04T04:07:48.818Z,26.30
2019-04-04T04:08:48.370Z,27.50
2019-04-04T04:09:48.774Z,28.90
2019-04-04T04:10:49.076Z,28.10
2019-04-04T04:11:49.440Z,28.30
2019-04-04T04:12:49.772Z,24.80
2019-04-04T04:13:50.233Z,26.90
2019-04-04T04:14:53.820Z,27.20
2019-04-04T04:15:50.849Z,28.70
2019-04-04T04:16:51.202Z,27.10
2019-04-04T04:17:51.534Z,27.90
2019-04-04T04:18:54.399Z,25.10
2019-04-04T04:19:52.249Z,25.40
2019-04-04T04:20:52.604Z,25.40
2019-04-04T04:21:53.056Z,26.50
2019-04-04T04:22:53.279Z,28.10
2019-04-04T04:23:56.595Z,28.40
2019-04-04T04:24:53.991Z,27.40
2019-04-04T04:25:54.340Z,25.20
2019-04-04T04:26:54.943Z,27.40
2019-04-04T04:27:55.054Z,32.00
2019-04-04T04:28:55.406Z,25.00
2019-04-04T04:29:55.832Z,25.10
2019-04-04T04:30:56.145Z,30.10
2019-04-04T04:31:56.485Z,28.10
2019-04-04T04:32:57.346Z,27.30
2019-04-04T04:33:58.432Z,29.80
2019-04-04T04:34:57.539Z,26.60
2019-04-04T04:35:58.648Z,30.20
2019-04-04T04:36:58.213Z,26.20
2019-04-04T04:37:58.592Z,26.00
2019-04-04T04:38:59.863Z,27.20
2019-04-04T04:39:59.300Z,29.40
2019-04-04T04:40:59.639Z,25.40
2019-04-04T04:42:00.012Z,26.60
2019-04-04T04:43:00.969Z,29.80
2019-04-04T04:44:02.626Z,25.50
2019-04-04T04:45:01.079Z,28.50
2019-04-04T04:46:01.435Z,28.40
2019-04-04T04:47:01.877Z,26.30
2019-04-04T04:48:02.138Z,32.20
2019-04-04T04:49:03.303Z,28.70
2019-04-04T04:50:02.859Z,25.70
2019-04-04T04:51:03.216Z,25.10
2019-04-04T04:52:03.527Z,27.90
2019-04-04T04:53:03.912Z,27.10
2019-04-04T04:54:04.263Z,30.00
2019-04-04T04:55:04.713Z,27.30
2019-04-04T04:56:04.964Z,30.90
2019-04-04T04:57:05.310Z,26.30
2019-04-04T04:58:09.773Z,26.20
2019-04-04T04:59:06.014Z,27.40
2019-04-04T05:00:06.385Z,28.50
2019-04-04T05:01:06.738Z,28.10
2019-04-04T05:02:07.091Z,26.00
2019-04-04T05:03:07.482Z,22.80
2019-04-04T05:04:07.742Z,24.20
2019-04-04T05:05:08.134Z,32.10
2019-04-04T05:06:08.473Z,28.50
2019-04-04T05:07:08.846Z,28.90
2019-04-04T05:08:09.685Z,28.70
2019-04-04T05:09:09.531Z,26.40
2019-04-04T05:10:09.888Z,26.50
2019-04-04T05:11:10.291Z,25.00
2019-04-04T05:12:10.658Z,26.80
2019-04-04T05:13:10.950Z,24.50
2019-04-04T05:14:11.282Z,24.90
2019-04-04T05:15:11.660Z,25.40
2019-04-04T05:16:12.026Z,26.90
2019-04-04T05:17:12.383Z,25.90
2019-04-04T05:18:16.354Z,26.50
2019-04-04T05:19:13.076Z,25.50
2019-04-04T05:20:13.542Z,25.50
2019-04-04T05:21:24.160Z,29.60
2019-04-04T05:22:15.138Z,25.10
2019-04-04T05:23:15.464Z,25.80
2019-04-04T05:24:16.043Z,25.40
2019-04-04T05:25:15.196Z,28.60
2019-04-04T05:26:15.524Z,25.70
2019-04-04T05:27:15.904Z,28.70
2019-04-04T05:28:16.358Z,26.70
2019-04-04T05:29:16.578Z,26.90
2019-04-04T05:30:18.886Z,24.10
2019-04-04T05:31:18.108Z,27.60
2019-04-04T05:32:20.857Z,28.30
2019-04-04T05:33:18.009Z,31.40
2019-04-04T05:34:18.350Z,25.00
2019-04-04T05:35:18.716Z,33.60
2019-04-04T05:36:19.090Z,28.10
2019-04-04T05:37:19.393Z,30.10
2019-04-04T05:38:19.760Z,24.40
2019-04-04T05:39:20.124Z,28.60
2019-04-04T05:40:23.240Z,22.60
2019-04-04T05:41:20.825Z,27.70
2019-04-04T05:42:21.160Z,34.20
2019-04-04T05:43:21.503Z,30.60
2019-04-04T05:44:21.895Z,31.60
2019-04-04T05:45:22.230Z,27.30
2019-04-04T05:46:22.596Z,25.90
2019-04-04T05:47:23.319Z,26.50
2019-04-04T05:48:23.300Z,24.90
2019-04-04T05:49:23.625Z,30.50
2019-04-04T05:50:24.001Z,25.00
2019-04-04T05:51:24.503Z,28.20
2019-04-04T05:52:24.726Z,29.70
2019-04-04T05:53:25.192Z,28.00
2019-04-04T05:54:25.419Z,24.80
2019-04-04T05:55:25.781Z,29.80
2019-04-04T05:56:26.152Z,25.00
2019-04-04T05:57:26.476Z,27.10
2019-04-04T05:58:26.849Z,26.40
2019-04-04T05:59:27.168Z,27.10
2019-04-04T06:00:28.178Z,23.90
2019-04-04T06:01:28.072Z,29.60
2019-04-04T06:02:28.247Z,25.30
2019-04-04T06:03:28.865Z,26.20
2019-04-04T06:04:33.703Z,27.00
2019-04-04T06:05:34.224Z,28.50
2019-04-04T06:06:34.158Z,27.20
2019-04-04T06:07:36.335Z,25.70
2019-04-04T06:08:38.774Z,25.00
2019-04-04T06:09:35.883Z,24.70
2019-04-04T06:10:31.126Z,29.40
2019-04-04T06:11:31.431Z,27.80
2019-04-04T06:12:31.803Z,26.50
2019-04-04T06:13:32.176Z,25.10
2019-04-04T06:14:32.512Z,29.90
2019-04-04T06:15:32.947Z,28.40
2019-04-04T06:16:35.015Z,28.40
2019-04-04T06:17:33.695Z,27.60
2019-04-04T06:18:33.933Z,25.70
2019-04-04T06:19:34.276Z,26.60
2019-04-04T06:20:34.647Z,29.60
2019-04-04T06:21:34.982Z,27.20
2019-04-04T06:22:35.325Z,24.60
2019-04-04T06:23:35.702Z,26.90
2019-04-04T06:24:36.054Z,24.70
2019-04-04T06:25:36.463Z,27.10
2019-04-04T06:26:38.111Z,24.00
2019-04-04T06:27:39.844Z,26.90
2019-04-04T06:28:37.454Z,27.40
2019-04-04T06:29:37.806Z,27.20
2019-04-04T06:30:43.170Z,25.90
2019-04-04T06:31:39.520Z,28.70
2019-04-04T06:32:39.165Z,26.60
2019-04-04T06:33:39.271Z,24.20
2019-04-04T06:34:39.574Z,26.80
2019-04-04T06:35:40.093Z,23.10
2019-04-04T06:36:40.315Z,27.40
2019-04-04T06:37:40.673Z,25.50
2019-04-04T06:38:41.041Z,23.30
2019-04-04T06:39:41.371Z,26.20
2019-04-04T06:40:41.741Z,28.50
2019-04-04T06:41:42.086Z,26.60
2019-04-04T06:42:42.570Z,29.30
2019-04-04T06:43:42.803Z,23.50
2019-04-04T06:44:43.741Z,24.40
2019-04-04T06:45:46.326Z,29.40
2019-04-04T06:46:43.838Z,24.80
2019-04-04T06:47:44.230Z,26.00
2019-04-04T06:48:44.580Z,22.80
2019-04-04T06:49:45.717Z,22.20
2019-04-04T06:50:45.362Z,22.30
2019-04-04T06:51:46.362Z,20.50
2019-04-04T06:52:45.996Z,24.00
2019-04-04T06:53:46.866Z,24.10
2019-04-04T06:54:46.704Z,19.90
2019-04-04T06:55:47.059Z,24.50
2019-04-04T06:56:47.407Z,21.30
2019-04-04T06:57:50.939Z,20.00
2019-04-04T06:58:48.235Z,23.40
2019-04-04T06:59:50.901Z,22.10
2019-04-04T07:00:50.085Z,20.60
2019-04-04T07:01:50.019Z,28.90
2019-04-04T07:02:49.558Z,24.70
2019-04-04T07:03:52.488Z,20.00
2019-04-04T07:04:50.250Z,24.70
2019-04-04T07:05:50.608Z,19.10
2019-04-04T07:06:51.016Z,19.90
2019-04-04T07:07:51.317Z,20.60
2019-04-04T07:08:51.658Z,21.60
2019-04-04T07:09:51.998Z,23.30
2019-04-04T07:10:57.831Z,27.10
2019-04-04T07:11:53.722Z,19.70
2019-04-04T07:13:04.755Z,22.40
2019-04-04T07:13:54.441Z,22.30
2019-04-04T07:14:53.830Z,21.80
2019-04-04T07:16:06.285Z,21.30
2019-04-04T07:16:55.568Z,22.60
2019-04-04T07:17:54.857Z,24.10
2019-04-04T07:18:55.196Z,19.90
2019-04-04T07:19:55.517Z,25.00
2019-04-04T07:20:55.890Z,20.90
2019-04-04T07:21:56.257Z,22.80
2019-04-04T07:22:56.627Z,23.90
2019-04-04T07:23:59.297Z,20.00
2019-04-04T07:24:57.277Z,21.80
2019-04-04T07:25:57.653Z,22.30
2019-04-04T07:26:58.019Z,22.10
2019-04-04T07:27:58.395Z,24.30
2019-04-04T07:28:58.721Z,19.30
2019-04-04T07:29:59.055Z,18.60
2019-04-04T07:31:01.518Z,20.90
2019-04-04T07:31:59.919Z,21.30
2019-04-04T07:33:00.139Z,26.50
2019-04-04T07:34:00.476Z,19.70
2019-04-04T07:35:00.814Z,19.80
2019-04-04T07:36:01.142Z,18.90
2019-04-04T07:37:01.551Z,18.50
2019-04-04T07:38:01.901Z,22.80
2019-04-04T07:39:02.243Z,23.10
2019-04-04T07:40:03.189Z,19.30
2019-04-04T07:41:02.912Z,17.80
2019-04-04T07:42:03.275Z,18.80
2019-04-04T07:43:03.647Z,19.80
2019-04-04T07:44:04.020Z,23.60
2019-04-04T07:45:04.329Z,19.10
2019-04-04T07:46:15.678Z,21.20
2019-04-04T07:47:06.070Z,19.30
2019-04-04T07:48:05.429Z,19.60
2019-04-04T07:49:05.775Z,19.30
2019-04-04T07:50:06.098Z,19.60
2019-04-04T07:51:06.449Z,20.00
2019-04-04T07:52:06.820Z,18.70
2019-04-04T07:53:07.161Z,20.90
2019-04-04T07:54:07.973Z,23.70
2019-04-04T07:55:09.998Z,18.80
2019-04-04T07:56:08.236Z,19.00
2019-04-04T07:57:08.899Z,18.50
2019-04-04T07:58:09.001Z,17.80
2019-04-04T07:59:09.377Z,20.50
2019-04-04T08:00:09.712Z,20.70
2019-04-04T08:01:10.074Z,18.00
2019-04-04T08:02:10.448Z,22.00
2019-04-04T08:03:10.774Z,21.50
2019-04-04T08:04:11.165Z,22.20
2019-04-04T08:05:12.916Z,22.40
2019-04-04T08:06:11.841Z,18.80
2019-04-04T08:07:12.212Z,17.90
2019-04-04T08:08:12.540Z,21.80
2019-04-04T08:09:12.897Z,19.30
2019-04-04T08:10:20.417Z,19.70
2019-04-04T08:11:14.631Z,20.30
2019-04-04T08:12:14.008Z,18.90
2019-04-04T08:13:14.438Z,18.60
2019-04-04T08:14:14.716Z,19.60
2019-04-04T08:15:15.036Z,16.20
2019-04-04T08:16:15.407Z,17.80
2019-04-04T08:17:18.653Z,20.30
2019-04-04T08:18:16.109Z,18.10
2019-04-04T08:19:16.473Z,17.80
2019-04-04T08:20:16.842Z,16.80
2019-04-04T08:21:17.208Z,16.00
2019-04-04T08:22:17.609Z,18.10
2019-04-04T08:23:17.881Z,20.50
2019-04-04T08:24:18.217Z,18.90
2019-04-04T08:25:18.596Z,18.70
2019-04-04T08:26:18.916Z,15.40
2019-04-04T08:27:19.272Z,17.90
2019-04-04T08:28:19.623Z,17.50
2019-04-04T08:29:20.023Z,17.00
2019-04-04T08:30:20.384Z,16.70
2019-04-04T08:31:20.705Z,18.90
2019-04-04T08:32:21.061Z,17.30
2019-04-04T08:33:21.410Z,15.50
2019-04-04T08:34:21.771Z,20.50
2019-04-04T08:35:22.169Z,18.00
2019-04-04T08:36:22.492Z,23.00
2019-04-04T08:37:22.886Z,22.30
2019-04-04T08:38:23.270Z,16.60
2019-04-04T08:39:23.561Z,18.60
2019-04-04T08:40:23.907Z,18.60
2019-04-04T08:41:24.243Z,19.10
2019-04-04T08:42:24.615Z,16.60
2019-04-04T08:43:24.930Z,17.20
2019-04-04T08:44:25.314Z,17.30
2019-04-04T08:45:25.730Z,14.10
2019-04-04T08:46:26.118Z,17.30
2019-04-04T08:47:26.375Z,17.70
2019-04-04T08:48:26.691Z,16.50
2019-04-04T08:49:27.072Z,19.40
2019-04-04T08:50:27.454Z,17.50
2019-04-04T08:51:27.770Z,21.20
2019-04-04T08:52:28.139Z,15.10
2019-04-04T08:53:38.922Z,15.70
2019-04-04T08:54:29.933Z,15.70
2019-04-04T08:55:29.178Z,17.40
2019-04-04T08:56:29.514Z,15.20
2019-04-04T08:57:29.892Z,15.30
2019-04-04T08:58:30.229Z,15.10
2019-04-04T08:59:30.602Z,14.80
2019-04-04T09:00:30.932Z,13.00
2019-04-04T09:01:31.285Z,15.40
2019-04-04T09:02:31.686Z,15.70
2019-04-04T09:03:31.974Z,14.30
2019-04-04T09:04:32.350Z,13.30
2019-04-04T09:05:32.677Z,16.80
2019-04-04T09:06:33.009Z,18.10
2019-04-04T09:07:33.389Z,15.30
2019-04-04T09:08:33.735Z,15.40
2019-04-04T09:09:34.625Z,15.40
2019-04-04T09:10:34.503Z,16.40
2019-04-04T09:11:34.829Z,14.80
2019-04-04T09:12:35.144Z,16.10
2019-04-04T09:13:35.512Z,13.70
2019-04-04T09:14:35.887Z,15.90
2019-04-04T09:15:36.233Z,16.30
2019-04-04T09:16:36.575Z,14.60
2019-04-04T09:17:36.908Z,14.60
2019-04-04T09:18:37.301Z,16.50
2019-04-04T09:19:38.020Z,13.40
2019-04-04T09:20:38.010Z,14.20
2019-04-04T09:21:38.344Z,15.30
2019-04-04T09:22:40.511Z,17.80
2019-04-04T09:23:39.066Z,13.80
2019-04-04T09:24:39.423Z,14.40
2019-04-04T09:25:40.759Z,14.10
2019-04-04T09:26:40.114Z,16.00
2019-04-04T09:27:40.579Z,14.00
2019-04-04T09:28:40.821Z,14.00
2019-04-04T09:29:41.161Z,13.80
2019-04-04T09:30:41.535Z,12.30
2019-04-04T09:31:41.847Z,13.20
2019-04-04T09:32:42.223Z,18.00
2019-04-04T09:33:42.577Z,12.80
2019-04-04T09:34:42.926Z,15.00
2019-04-04T09:35:43.351Z,16.60
2019-04-04T09:36:43.606Z,13.90
2019-04-04T09:37:43.968Z,16.10
2019-04-04T09:38:44.318Z,11.30
2019-04-04T09:39:44.659Z,12.50
2019-04-04T09:40:45.048Z,14.30
2019-04-04T09:41:45.374Z,12.20
2019-04-04T09:42:45.721Z,11.30
2019-04-04T09:43:46.119Z,10.50
2019-04-04T09:44:46.398Z,15.50
2019-04-04T09:45:46.811Z,12.90
2019-04-04T09:46:47.133Z,12.10
2019-04-04T09:47:47.485Z,14.00
2019-04-04T09:48:47.856Z,12.70
2019-04-04T09:49:48.189Z,13.30
2019-04-04T09:50:48.555Z,13.50
2019-04-04T09:51:48.899Z,14.20
2019-04-04T09:52:49.338Z,11.00
2019-04-04T09:53:53.312Z,13.40
2019-04-04T09:54:49.951Z,15.90
2019-04-04T09:55:50.315Z,12.80
2019-04-04T09:56:50.656Z,14.80
2019-04-04T09:57:51.026Z,9.80
2019-04-04T09:58:51.399Z,12.80
2019-04-04T09:59:51.731Z,13.10
2019-04-04T10:00:52.190Z,13.00
2019-04-04T10:01:52.428Z,12.60
2019-04-04T10:02:52.784Z,10.90
2019-04-04T10:03:53.161Z,11.10
2019-04-04T10:04:53.497Z,11.90
2019-04-04T10:05:53.869Z,13.80
2019-04-04T10:06:54.184Z,9.70
2019-04-04T10:07:54.553Z,12.40
2019-04-04T10:08:55.034Z,11.90
2019-04-04T10:09:55.255Z,13.20
2019-04-04T10:10:55.641Z,12.40
2019-04-04T10:11:55.951Z,11.70
2019-04-04T10:12:56.307Z,10.40
2019-04-04T10:13:56.691Z,11.60
2019-04-04T10:14:57.023Z,10.60
2019-04-04T10:15:57.401Z,12.40
2019-04-04T10:16:57.765Z,9.10
2019-04-04T10:17:58.054Z,10.00
2019-04-04T10:18:58.435Z,11.10
2019-04-04T10:19:58.793Z,13.80
2019-04-04T10:21:10.889Z,10.00
2019-04-04T10:22:00.512Z,13.00
2019-04-04T10:22:59.870Z,10.20
2019-04-04T10:24:00.247Z,12.90
2019-04-04T10:25:00.583Z,10.70
2019-04-04T10:26:00.987Z,10.20
2019-04-04T10:27:01.301Z,9.50
2019-04-04T10:28:01.631Z,12.90
2019-04-04T10:29:02.016Z,13.30
2019-04-04T10:30:02.329Z,14.10
2019-04-04T10:31:02.708Z,15.10
2019-04-04T10:32:03.076Z,10.80
2019-04-04T10:33:03.425Z,12.90
2019-04-04T10:34:03.877Z,12.30
2019-04-04T10:35:04.106Z,10.90
2019-04-04T10:41:02.393Z,14.10
2019-04-04T10:42:02.746Z,12.30
2019-04-04T10:43:03.115Z,11.80
2019-04-04T10:44:03.477Z,11.10
2019-04-04T10:45:03.834Z,10.90
2019-04-04T10:46:04.235Z,14.00
2019-04-04T10:47:04.529Z,14.20
2019-04-04T10:48:04.859Z,9.10
2019-04-04T10:49:08.131Z,11.80
2019-04-04T10:50:05.571Z,11.70
2019-04-04T10:51:05.927Z,12.10
2019-04-04T10:52:06.293Z,13.10
2019-04-04T10:53:06.638Z,12.40
2019-04-04T10:54:07.126Z,12.30
2019-04-04T10:55:07.354Z,13.20
2019-04-04T10:56:07.691Z,13.50
2019-04-04T10:57:08.095Z,11.60
2019-04-04T10:58:08.445Z,10.60
2019-04-04T10:59:08.813Z,11.10
2019-04-04T11:00:09.154Z,12.80
2019-04-04T11:01:09.746Z,11.90
2019-04-04T11:02:09.950Z,15.40
2019-04-04T11:03:10.164Z,14.50
2019-04-04T11:04:10.557Z,13.50
2019-04-04T11:05:10.894Z,11.80
2019-04-04T11:06:11.250Z,10.20
2019-04-04T11:07:11.620Z,11.50
2019-04-04T11:08:11.966Z,10.90
2019-04-04T11:09:12.309Z,9.70
2019-04-04T11:10:12.717Z,11.10
2019-04-04T11:11:12.995Z,9.80
2019-04-04T11:12:13.369Z,8.60
2019-04-04T11:13:13.713Z,10.30
2019-04-04T11:14:14.079Z,10.60
2019-04-04T11:15:14.399Z,12.40
2019-04-04T11:16:14.765Z,12.20
2019-04-04T11:17:15.144Z,9.10
2019-04-04T11:18:15.504Z,10.60
2019-04-04T11:19:15.883Z,11.50
2019-04-04T11:20:16.164Z,9.40
2019-04-04T11:21:16.535Z,11.70
2019-04-04T11:22:16.904Z,8.30
2019-04-04T11:23:17.241Z,9.70
2019-04-04T11:24:17.602Z,8.40
2019-04-04T11:25:17.948Z,14.20
2019-04-04T11:26:18.287Z,12.00
2019-04-04T11:27:18.753Z,12.40
2019-04-04T11:28:19.007Z,10.80
2019-04-04T11:29:19.373Z,8.30
2019-04-04T11:30:19.686Z,10.80
2019-04-04T11:31:20.055Z,16.20
2019-04-04T11:32:20.433Z,9.70
2019-04-04T11:33:20.800Z,12.10
2019-04-04T11:34:21.145Z,12.30
2019-04-04T11:35:21.579Z,9.30
2019-04-04T11:36:21.805Z,10.00
2019-04-04T11:37:22.183Z,8.90
2019-04-04T11:38:22.535Z,10.10
2019-04-04T11:39:22.890Z,11.60
2019-04-04T11:40:23.237Z,10.40
2019-04-04T11:41:23.584Z,11.60
2019-04-04T11:42:23.939Z,15.60
2019-04-04T11:43:24.355Z,8.90
2019-04-04T11:44:24.644Z,8.90
2019-04-04T11:45:24.984Z,7.90
2019-04-04T11:46:25.337Z,9.80
2019-04-04T11:47:25.692Z,10.10
2019-04-04T11:48:26.047Z,11.30
2019-04-04T11:49:26.408Z,9.70
2019-04-04T11:50:26.748Z,12.80
2019-04-04T11:51:27.132Z,8.90
2019-04-04T11:52:27.490Z,11.50
2019-04-04T11:53:27.842Z,8.50
2019-04-04T11:54:28.162Z,8.10
2019-04-04T11:55:28.516Z,10.10
2019-04-04T11:56:28.873Z,9.00
2019-04-04T11:57:29.239Z,11.60
2019-04-04T11:58:29.594Z,11.50
2019-04-04T11:59:29.952Z,10.20
2019-04-04T12:00:30.389Z,14.10
2019-04-04T12:01:30.652Z,9.40
2019-04-04T12:02:32.540Z,9.80
2019-04-04T12:03:31.341Z,10.30
2019-04-04T12:04:31.712Z,9.80
2019-04-04T12:05:32.081Z,8.20
2019-04-04T12:06:32.413Z,11.50
2019-04-04T12:07:32.791Z,7.80
2019-04-04T12:08:33.261Z,11.50
2019-04-04T12:09:33.462Z,9.70
2019-04-04T12:10:33.832Z,11.50
2019-04-04T12:11:34.175Z,9.40
2019-04-04T12:12:34.538Z,9.40
2019-04-04T12:13:34.885Z,9.60
2019-04-04T12:14:35.249Z,11.90
2019-04-04T12:15:35.589Z,7.70
2019-04-04T12:16:35.992Z,10.60
2019-04-04T12:17:36.294Z,10.70
2019-04-04T12:18:36.634Z,9.80
2019-04-04T12:19:37.006Z,8.90
2019-04-04T12:20:39.142Z,8.50
2019-04-04T12:21:37.702Z,6.60
2019-04-04T12:22:38.068Z,10.10
2019-04-04T12:23:39.964Z,7.40
2019-04-04T12:24:40.460Z,10.50
2019-04-04T12:25:39.128Z,9.60
2019-04-04T12:26:39.442Z,10.40
2019-04-04T12:27:39.839Z,8.50
2019-04-04T12:28:40.172Z,7.70
2019-04-04T12:29:40.535Z,8.80
2019-04-04T12:30:40.899Z,7.20
2019-04-04T12:31:41.231Z,11.30
2019-04-04T12:32:41.635Z,7.90
2019-04-04T12:33:42.049Z,9.30
2019-04-04T12:34:42.330Z,10.20
2019-04-04T12:35:42.687Z,8.90
2019-04-04T12:36:43.021Z,7.50
2019-04-04T12:37:43.384Z,8.60
2019-04-04T12:38:43.725Z,10.30
2019-04-04T12:39:44.370Z,8.10
2019-04-04T12:40:44.706Z,12.90
2019-04-04T12:41:44.962Z,10.40
2019-04-04T12:42:45.163Z,9.80
2019-04-04T12:43:45.500Z,7.10
2019-04-04T12:44:45.910Z,8.30
2019-04-04T12:45:46.248Z,10.40
2019-04-04T12:46:46.609Z,7.50
2019-04-04T12:47:46.951Z,9.40
2019-04-04T12:48:47.290Z,11.30
2019-04-04T12:49:47.724Z,9.80
2019-04-04T12:50:48.467Z,7.10
2019-04-04T12:51:48.359Z,8.50
2019-04-04T12:52:48.707Z,8.00
2019-04-04T12:53:49.044Z,13.60
2019-04-04T12:54:49.406Z,9.90
2019-04-04T12:55:49.769Z,7.90
2019-04-04T12:56:50.117Z,11.60
2019-04-04T12:57:50.535Z,10.20
2019-04-04T12:58:50.805Z,8.20
2019-04-04T12:59:51.210Z,9.90
2019-04-04T13:00:51.519Z,9.50
2019-04-04T13:01:51.876Z,10.20
2019-04-04T13:02:52.247Z,8.00
2019-04-04T13:03:52.599Z,10.40